Time;durP1;ratioP1;P1;durP2;ratioP2;P2;SDS_P1;SDS_P2;PMS_P1;PMS_P2;Temp;Humidity;BMP_temperature;BMP_pressure;BME280_temperature;BME280_humidity;BME280_pressure;Samples;Min_cycle;Max_cycle;Signal;HPM_P1;HPM_P2
2022/10/24 00:01:34;;;;;;;2.50;1.50;;;;;;;17.76;74.15;99542.69;4347712;33;34538;-73
2022/10/24 00:04:03;;;;;;;3.20;2.90;;;;;;;17.19;76.86;99549.16;4347821;33;34348;-73
2022/10/24 00:06:35;;;;;;;1.10;1.10;;;;;;;17.75;74.62;99542.75;4347606;33;34864;-73
2022/10/24 00:09:04;;;;;;;0.75;0.75;;;;;;;17.96;73.34;99534.06;4347562;33;35032;-73
2022/10/24 00:11:32;;;;;;;1.10;1.08;;;;;;;17.50;75.15;99535.75;4347577;33;34570;-73
2022/10/24 00:14:00;;;;;;;2.10;1.42;;;;;;;17.40;75.71;99539.62;4347559;33;33443;-73
2022/10/24 00:16:28;;;;;;;2.53;1.60;;;;;;;17.54;75.07;99536.50;4331513;33;33893;-73
2022/10/24 00:18:56;;;;;;;1.30;1.20;;;;;;;17.48;75.76;99537.59;4333043;33;35869;-73
2022/10/24 00:21:24;;;;;;;2.03;1.92;;;;;;;17.58;74.76;99548.66;4332747;33;34313;-73
2022/10/24 00:23:52;;;;;;;1.83;1.70;;;;;;;17.32;75.81;99546.94;4332730;33;34143;-73
2022/10/24 00:26:20;;;;;;;1.60;1.50;;;;;;;16.94;78.06;99541.22;4334389;33;34707;-73
2022/10/24 00:28:48;;;;;;;1.30;1.20;;;;;;;17.12;77.63;99547.62;4333377;33;33609;-73
2022/10/24 00:31:18;;;;;;;2.12;1.92;;;;;;;17.16;77.55;99536.09;4333651;33;34905;-73
2022/10/24 00:33:46;;;;;;;1.67;1.58;;;;;;;17.43;75.52;99534.25;4333570;33;34451;-73
2022/10/24 00:36:17;;;;;;;1.83;1.73;;;;;;;17.49;75.73;99534.03;4334768;33;33558;-73
2022/10/24 00:38:45;;;;;;;2.60;1.95;;;;;;;17.49;75.76;99528.78;4334706;33;35125;-73
2022/10/24 00:41:20;;;;;;;2.22;1.92;;;;;;;17.21;76.91;99519.22;4334668;33;34611;-73
2022/10/24 00:43:49;;;;;;;2.03;1.83;;;;;;;17.66;75.04;99524.66;4334692;33;33487;-73
2022/10/24 00:46:18;;;;;;;1.83;1.73;;;;;;;17.60;74.91;99523.13;4334658;33;34009;-73
2022/10/24 00:48:49;;;;;;;1.85;1.75;;;;;;;17.67;74.32;99515.88;4333514;33;34958;-73
2022/10/24 00:51:18;;;;;;;2.08;1.92;;;;;;;17.11;76.79;99516.97;4333471;33;35174;-73
2022/10/24 00:53:49;;;;;;;1.77;1.52;;;;;;;17.28;76.47;99525.12;4334545;33;33522;-73
2022/10/24 00:56:19;;;;;;;2.12;1.80;;;;;;;17.34;76.89;99510.91;4333397;33;33791;-73
2022/10/24 00:58:48;;;;;;;1.85;1.75;;;;;;;17.47;75.92;99514.81;4333493;33;35244;-73
2022/10/24 01:01:16;;;;;;;3.33;3.03;;;;;;;17.58;74.91;99510.00;4334448;33;34332;-73
2022/10/24 01:03:44;;;;;;;1.67;1.58;;;;;;;17.77;74.20;99509.31;4334954;33;32997;-73
2022/10/24 01:06:35;;;;;;;2.58;2.37;;;;;;;17.33;76.00;99512.69;4334491;33;33898;-73
2022/10/24 01:09:14;;;;;;;1.65;1.60;;;;;;;17.10;77.44;99516.13;4333384;33;35982;-73
2022/10/24 01:12:05;;;;;;;4.47;1.95;;;;;;;17.11;76.62;99509.94;4333362;33;35169;-73
2022/10/24 01:14:43;;;;;;;2.85;2.60;;;;;;;17.28;76.32;99497.94;4321688;33;234872;-73
2022/10/24 01:17:31;;;;;;;1.25;1.20;;;;;;;17.24;75.94;99502.47;4334749;33;34843;-73
2022/10/24 01:20:43;;;;;;;2.45;2.25;;;;;;;17.08;77.12;99496.88;4333313;33;35011;-74
2022/10/24 01:23:24;;;;;;;1.33;1.15;;;;;;;16.89;78.19;99503.69;4332576;33;34364;-73
2022/10/24 01:26:03;;;;;;;1.45;1.35;;;;;;;16.78;78.50;99510.16;4334444;33;33484;-73
2022/10/24 01:28:53;;;;;;;2.78;2.53;;;;;;;16.96;78.15;99528.87;4333333;33;34719;-73
2022/10/24 01:31:39;;;;;;;2.78;1.42;;;;;;;17.24;76.32;99523.50;4334466;33;35846;-73
2022/10/24 01:34:14;;;;;;;1.60;1.50;;;;;;;16.99;77.86;99534.03;4333153;33;35128;-73
2022/10/24 01:36:49;;;;;;;3.87;2.90;;;;;;;16.96;78.01;99523.59;4332828;33;33356;-73
2022/10/24 01:39:21;;;;;;;6.75;4.20;;;;;;;17.14;76.35;99509.84;4333234;33;33946;-73
2022/10/24 01:41:49;;;;;;;2.95;2.33;;;;;;;17.04;77.11;99516.31;4333087;33;34928;-73
2022/10/24 01:44:24;;;;;;;2.62;1.75;;;;;;;16.93;77.26;99521.09;4334318;33;35045;-73
2022/10/24 01:47:00;;;;;;;3.30;2.42;;;;;;;17.03;77.35;99517.25;4333262;33;33428;-73
2022/10/24 01:49:33;;;;;;;4.62;3.03;;;;;;;17.16;77.00;99510.63;4333136;33;33882;-73
2022/10/24 01:52:05;;;;;;;1.35;1.25;;;;;;;17.00;77.44;99506.81;4333164;33;35013;-73
2022/10/24 01:54:34;;;;;;;1.27;1.23;;;;;;;17.34;75.79;99503.00;4333040;33;33691;-73
2022/10/24 01:57:04;;;;;;;2.95;1.37;;;;;;;16.91;77.17;99504.53;4333111;33;33519;-73
2022/10/24 01:59:32;;;;;;;2.75;2.22;;;;;;;17.42;75.15;99507.06;4334103;33;34638;-73
2022/10/24 02:02:16;;;;;;;1.25;1.05;;;;;;;17.23;76.01;99496.34;4334147;33;35093;-73
2022/10/24 02:04:52;;;;;;;3.60;2.05;;;;;;;17.27;75.18;99496.25;4333049;33;35302;-73
2022/10/24 02:07:21;;;;;;;2.83;2.35;;;;;;;17.00;76.74;99489.25;4334262;33;33562;-72
2022/10/24 02:09:53;;;;;;;2.22;2.08;;;;;;;17.41;74.28;99476.38;4333054;33;33452;-73
2022/10/24 02:12:22;;;;;;;2.97;2.78;;;;;;;16.90;76.77;99477.34;4332973;33;35053;-72
2022/10/24 02:14:57;;;;;;;2.58;1.98;;;;;;;17.09;76.04;99476.72;4334106;33;32944;-73
2022/10/24 02:17:25;;;;;;;0.60;0.60;;;;;;;17.09;75.54;99471.44;4333328;33;34457;-71
2022/10/24 02:19:53;;;;;;;1.37;1.27;;;;;;;17.14;75.70;99469.50;4348815;33;34739;-71
2022/10/24 02:22:33;;;;;;;1.55;1.45;;;;;;;16.63;77.96;99471.22;4335401;33;35012;-71
2022/10/24 02:25:08;;;;;;;2.00;1.83;;;;;;;16.84;77.43;99470.53;4335479;33;35162;-72
2022/10/24 02:28:00;;;;;;;2.08;1.55;;;;;;;17.13;75.91;99468.63;4335503;33;33429;-71
2022/10/24 02:30:30;;;;;;;3.25;2.78;;;;;;;16.74;77.27;99476.97;4348720;33;33961;-71
2022/10/24 02:33:00;;;;;;;1.48;1.37;;;;;;;16.65;78.01;99485.16;4335178;33;34932;-72
2022/10/24 02:35:30;;;;;;;1.90;1.77;;;;;;;16.81;76.88;99478.47;4348479;33;35393;-71
2022/10/24 02:38:35;;;;;;;1.55;1.45;;;;;;;16.94;76.44;99473.72;4322955;33;32162;-71
2022/10/24 02:41:07;;;;;;;1.50;1.40;;;;;;;16.98;76.91;99467.41;4302298;33;33763;-71
2022/10/24 02:43:37;;;;;;;1.17;1.15;;;;;;;16.89;76.60;99466.87;4341588;33;35783;-71
2022/10/24 02:46:05;;;;;;;1.62;1.52;;;;;;;16.60;77.86;99479.19;4335322;33;35230;-72
2022/10/24 02:48:35;;;;;;;1.23;1.20;;;;;;;16.78;76.79;99478.59;4334243;33;33491;-72
2022/10/24 02:51:04;;;;;;;6.15;2.83;;;;;;;16.80;76.69;99487.28;4348460;33;34230;-72
2022/10/24 02:53:34;;;;;;;2.05;1.55;;;;;;;16.84;76.65;99488.94;4322880;33;33892;-72
2022/10/24 02:56:03;;;;;;;5.25;3.53;;;;;;;16.98;76.24;99490.25;4334973;33;33635;-72
2022/10/24 02:58:35;;;;;;;1.92;1.75;;;;;;;17.00;75.86;99483.16;4348563;33;34120;-72
2022/10/24 03:01:03;;;;;;;0.85;0.85;;;;;;;16.89;76.17;99480.00;4348347;33;33920;-72
2022/10/24 03:03:31;;;;;;;2.90;2.70;;;;;;;16.78;76.47;99470.72;4334684;33;35096;-72
2022/10/24 03:05:59;;;;;;;2.00;1.90;;;;;;;16.90;75.36;99460.69;4334786;33;33658;-72
2022/10/24 03:08:27;;;;;;;4.78;2.33;;;;;;;16.97;75.49;99456.94;4348291;33;34341;-71
2022/10/24 03:10:55;;;;;;;1.77;1.67;;;;;;;16.89;75.97;99448.44;4348422;33;34760;-72
2022/10/24 03:13:23;;;;;;;1.48;1.37;;;;;;;17.12;74.67;99439.75;4348346;33;35909;-72
2022/10/24 03:15:51;;;;;;;1.95;1.85;;;;;;;16.50;77.44;99447.13;4334586;33;34323;-72
2022/10/24 03:18:19;;;;;;;1.17;1.12;;;;;;;16.35;78.28;99443.22;4348117;33;33116;-72
2022/10/24 03:20:47;;;;;;;1.65;1.20;;;;;;;16.46;77.91;99438.44;4334906;33;33925;-72
2022/10/24 03:23:17;;;;;;;4.78;2.40;;;;;;;16.83;76.55;99446.88;4348121;33;34990;-71
2022/10/24 03:25:45;;;;;;;1.25;1.25;;;;;;;16.84;76.81;99446.84;4348128;33;33695;-71
2022/10/24 03:28:13;;;;;;;4.28;1.77;;;;;;;16.77;76.47;99445.31;4348121;33;33553;-72
2022/10/24 03:30:41;;;;;;;0.82;0.82;;;;;;;16.59;77.33;99451.19;4334381;33;32508;-72
2022/10/24 03:33:09;;;;;;;7.28;3.67;;;;;;;16.49;78.05;99455.91;4322440;33;35321;-72
2022/10/24 03:35:38;;;;;;;1.00;0.95;;;;;;;16.90;76.03;99458.91;4347905;33;35332;-72
2022/10/24 03:38:09;;;;;;;2.35;1.95;;;;;;;16.66;77.31;99455.34;4347873;33;33523;-72
2022/10/24 03:40:37;;;;;;;1.10;1.08;;;;;;;17.05;75.48;99454.91;4334723;33;34613;-72
2022/10/24 03:43:05;;;;;;;1.87;1.77;;;;;;;17.03;75.37;99451.47;4334432;33;35142;-71
2022/10/24 03:45:33;;;;;;;2.03;1.83;;;;;;;16.50;76.98;99457.63;4334592;33;33952;-72
2022/10/24 03:48:01;;;;;;;1.75;1.65;;;;;;;16.44;77.43;99455.19;4334541;33;33377;-72
2022/10/24 03:50:29;;;;;;;2.20;2.00;;;;;;;16.58;77.69;99462.63;4347802;33;34777;-72
2022/10/24 03:52:58;;;;;;;2.30;2.10;;;;;;;16.29;78.61;99464.44;4347709;33;35147;-72
2022/10/24 03:55:27;;;;;;;2.58;2.10;;;;;;;16.80;76.41;99462.75;4322041;33;33642;-72
2022/10/24 03:57:55;;;;;;;2.10;1.92;;;;;;;16.34;78.62;99472.16;4347566;33;33660;-72
2022/10/24 04:00:24;;;;;;;3.70;3.10;;;;;;;16.35;78.97;99466.00;4349404;33;33865;-72
2022/10/24 04:02:52;;;;;;;0.50;0.50;;;;;;;16.29;79.60;99480.22;4349560;33;36000;-72
2022/10/24 04:05:20;;;;;;;2.28;1.75;;;;;;;16.25;79.27;99471.56;4336164;33;35163;-72
2022/10/24 04:07:48;;;;;;;2.70;2.03;;;;;;;16.12;79.98;99472.84;4336274;33;34116;-72
2022/10/24 04:10:16;;;;;;;2.30;1.60;;;;;;;16.48;78.64;99475.19;4336062;33;33314;-72
2022/10/24 04:12:44;;;;;;;0.77;0.77;;;;;;;16.72;77.03;99478.78;4336218;33;35131;-72
2022/10/24 04:15:12;;;;;;;2.15;1.95;;;;;;;17.00;75.28;99475.25;4349262;33;34382;-72
2022/10/24 04:17:40;;;;;;;1.95;1.85;;;;;;;16.82;76.15;99472.31;4349455;33;34248;-72
2022/10/24 04:20:09;;;;;;;1.50;1.40;;;;;;;16.87;75.64;99464.28;4323829;33;33343;-72
2022/10/24 04:22:37;;;;;;;3.37;1.58;;;;;;;16.64;76.87;99462.41;4349286;33;35841;-72
2022/10/24 04:25:06;;;;;;;3.85;3.50;;;;;;;16.52;77.17;99454.94;4349408;33;34553;-72
2022/10/24 04:27:35;;;;;;;1.45;1.37;;;;;;;16.66;76.72;99463.25;4336081;33;33944;-72
2022/10/24 04:30:04;;;;;;;2.58;1.60;;;;;;;16.03;78.85;99457.38;4349209;33;34002;-71
2022/10/24 04:32:32;;;;;;;2.55;2.35;;;;;;;16.61;76.75;99460.75;4349285;33;34941;-71
2022/10/24 04:35:00;;;;;;;2.20;1.58;;;;;;;16.44;77.19;99461.31;4349173;33;35235;-71
2022/10/24 04:37:28;;;;;;;1.15;1.10;;;;;;;16.42;77.76;99460.50;4349285;33;33285;-72
2022/10/24 04:39:56;;;;;;;1.77;1.67;;;;;;;16.49;77.72;99459.37;4349072;33;34724;-71
2022/10/24 04:42:24;;;;;;;2.25;2.05;;;;;;;16.51;77.25;99454.06;4349258;33;35891;-71
2022/10/24 04:44:52;;;;;;;2.30;2.10;;;;;;;16.64;76.32;99454.50;4335989;33;34454;-71
2022/10/24 04:47:21;;;;;;;13.52;3.45;;;;;;;16.41;77.26;99452.66;4349245;33;33751;-71
2022/10/24 04:49:48;;;;;;;2.50;1.70;;;;;;;16.71;75.54;99440.25;4349186;33;34775;-72
2022/10/24 04:52:16;;;;;;;3.20;2.95;;;;;;;16.22;78.20;99428.78;4349068;33;35963;-71
2022/10/24 04:54:45;;;;;;;2.83;1.58;;;;;;;16.62;75.44;99419.53;4349122;33;35255;-71
2022/10/24 04:57:13;;;;;;;2.53;2.30;;;;;;;16.33;77.54;99429.28;4335775;33;34255;-70
2022/10/24 04:59:41;;;;;;;1.48;1.37;;;;;;;16.28;77.62;99436.44;4349183;33;34069;-70
2022/10/24 05:02:09;;;;;;;2.03;1.87;;;;;;;15.92;79.14;99434.09;4349112;33;35752;-72
2022/10/24 05:04:37;;;;;;;2.75;2.50;;;;;;;16.40;77.37;99443.94;4349026;33;34487;-71
2022/10/24 05:07:05;;;;;;;10.05;2.17;;;;;;;15.96;79.53;99445.34;4348986;33;33573;-73
2022/10/24 05:09:33;;;;;;;1.50;1.33;;;;;;;15.97;79.32;99458.44;4349232;33;33964;-73
2022/10/24 05:12:01;;;;;;;4.85;3.40;;;;;;;15.64;80.76;99461.13;4348575;33;35019;-73
2022/10/24 05:14:29;;;;;;;1.08;0.95;;;;;;;16.06;79.13;99462.56;4349131;33;34501;-73
2022/10/24 05:16:57;;;;;;;4.53;4.05;;;;;;;15.87;79.62;99472.75;4348945;33;34128;-73
2022/10/24 05:19:25;;;;;;;1.48;1.37;;;;;;;15.76;79.78;99474.81;4335907;33;33901;-73
2022/10/24 05:21:53;;;;;;;2.42;1.90;;;;;;;15.92;79.38;99481.38;4349129;33;35032;-73
2022/10/24 05:24:22;;;;;;;1.27;1.17;;;;;;;15.86;79.45;99484.16;4349105;33;34416;-73
2022/10/24 05:26:50;;;;;;;2.03;1.92;;;;;;;15.93;79.40;99488.31;4349230;33;33321;-73
2022/10/24 05:29:18;;;;;;;1.45;1.35;;;;;;;15.72;80.62;99495.91;4349144;33;33857;-73
2022/10/24 05:31:46;;;;;;;1.90;1.80;;;;;;;16.09;78.77;99494.84;4335564;33;34212;-73
2022/10/24 05:34:14;;;;;;;7.28;4.22;;;;;;;16.06;78.32;99492.31;4335847;33;34362;-73
2022/10/24 05:36:42;;;;;;;2.03;1.92;;;;;;;15.99;78.74;99482.00;4348997;33;33484;-73
2022/10/24 05:39:10;;;;;;;4.40;2.25;;;;;;;16.65;76.31;99488.66;4349024;33;34017;-73
2022/10/24 05:41:38;;;;;;;3.80;2.40;;;;;;;16.00;78.39;99500.34;4335450;33;34364;-72
2022/10/24 05:44:13;;;;;;;2.15;1.62;;;;;;;16.30;77.59;99500.31;4335577;33;34752;-72
2022/10/24 05:46:41;;;;;;;1.85;1.75;;;;;;;15.96;79.58;99504.00;4349025;33;33565;-73
2022/10/24 05:49:12;;;;;;;3.22;2.45;;;;;;;16.45;77.23;99507.72;4335724;33;33956;-73
2022/10/24 05:51:40;;;;;;;3.83;3.17;;;;;;;16.05;79.22;99514.22;4335694;33;35004;-72
2022/10/24 05:54:08;;;;;;;2.70;2.42;;;;;;;16.07;78.98;99517.66;4348896;33;35159;-72
2022/10/24 05:56:37;;;;;;;5.45;2.97;;;;;;;15.85;80.46;99520.06;4348946;33;33531;-73
2022/10/24 05:59:05;;;;;;;9.18;5.12;;;;;;;15.73;81.55;99521.25;4348765;33;34793;-73
2022/10/24 06:01:32;;;;;;;2.85;2.65;;;;;;;15.87;81.76;99517.41;4348901;33;35029;-73
2022/10/24 06:04:01;;;;;;;7.87;2.47;;;;;;;16.15;79.64;99519.16;4349308;33;35208;-72
2022/10/24 06:06:29;;;;;;;4.12;3.72;;;;;;;16.39;78.60;99507.03;4349103;33;34320;-72
2022/10/24 06:08:57;;;;;;;6.05;3.20;;;;;;;16.37;78.32;99519.38;4335611;33;33025;-73
2022/10/24 06:11:25;;;;;;;2.42;2.22;;;;;;;16.54;77.21;99510.97;4348633;33;35075;-72
2022/10/24 06:13:53;;;;;;;2.17;2.08;;;;;;;16.45;76.98;99501.59;4348839;33;35243;-72
2022/10/24 06:16:21;;;;;;;3.45;2.30;;;;;;;16.10;79.13;99501.78;4348561;33;34384;-74
2022/10/24 06:18:49;;;;;;;3.72;3.37;;;;;;;15.95;80.02;99502.25;4348839;33;34599;-72
2022/10/24 06:21:17;;;;;;;2.42;2.22;;;;;;;15.82;80.25;99485.16;4348846;33;35686;-74
2022/10/24 06:23:45;;;;;;;3.15;2.90;;;;;;;15.72;81.32;99488.03;4335242;33;33509;-73
2022/10/24 06:26:13;;;;;;;2.90;2.67;;;;;;;16.18;79.21;99487.56;4348713;33;34431;-73
2022/10/24 06:28:41;;;;;;;2.37;2.17;;;;;;;15.85;80.29;99495.59;4348995;33;34706;-72
2022/10/24 06:31:11;;;;;;;2.85;2.62;;;;;;;16.15;79.64;99487.66;4348732;33;35830;-73
2022/10/24 06:33:39;;;;;;;5.80;3.70;;;;;;;16.34;78.40;99486.19;4335993;33;34616;-73
2022/10/24 06:36:08;;;;;;;1.77;1.67;;;;;;;16.29;79.03;99485.47;4348583;33;34281;-73
2022/10/24 06:38:36;;;;;;;2.25;2.08;;;;;;;16.36;77.82;99486.09;4335930;33;34770;-73
2022/10/24 06:41:09;;;;;;;4.65;4.28;;;;;;;16.37;77.61;99493.94;4335352;33;35210;-73
2022/10/24 06:43:37;;;;;;;8.15;4.95;;;;;;;16.09;79.06;99484.34;4335443;33;34416;-73
2022/10/24 06:46:07;;;;;;;2.75;2.50;;;;;;;16.26;78.12;99480.31;4348652;33;34365;-73
2022/10/24 06:48:36;;;;;;;2.12;2.03;;;;;;;16.21;78.52;99487.47;4335410;33;34650;-73
2022/10/24 06:51:05;;;;;;;9.95;4.05;;;;;;;15.95;79.70;99497.00;4335245;33;34920;-73
2022/10/24 06:53:34;;;;;;;7.45;3.97;;;;;;;16.04;79.81;99490.59;4348534;33;35112;-73
2022/10/24 06:56:03;;;;;;;3.95;1.83;;;;;;;16.12;79.08;99492.09;4348494;33;33577;-73
2022/10/24 06:58:36;;;;;;;4.00;2.90;;;;;;;16.02;79.84;99493.28;4335317;33;33343;-73
2022/10/24 07:01:13;;;;;;;1.60;1.50;;;;;;;16.20;78.15;99491.00;4335400;33;35014;-73
2022/10/24 07:03:41;;;;;;;3.85;2.78;;;;;;;16.17;78.62;99506.88;4348767;33;35204;-73
2022/10/24 07:06:14;;;;;;;4.05;3.12;;;;;;;16.23;78.82;99511.94;4335248;33;33446;-73
2022/10/24 07:08:43;;;;;;;13.45;4.53;;;;;;;16.48;77.98;99517.25;4348508;33;34805;-73
2022/10/24 07:11:11;;;;;;;1.98;1.87;;;;;;;15.70;80.02;99523.94;4348308;33;35087;-73
2022/10/24 07:13:40;;;;;;;3.42;2.67;;;;;;;16.16;78.93;99531.41;4335476;33;34332;-73
2022/10/24 07:16:21;;;;;;;7.82;5.55;;;;;;;16.17;78.88;99538.41;4334740;33;32899;-73
2022/10/24 07:19:22;;;;;;;3.33;3.08;;;;;;;16.26;78.50;99538.97;4328704;33;33932;-73
2022/10/24 07:21:58;;;;;;;2.62;2.12;;;;;;;16.08;79.56;99536.91;4348405;33;35124;-73
2022/10/24 07:24:26;;;;;;;10.70;4.12;;;;;;;16.54;77.77;99532.84;4348233;33;34598;-73
2022/10/24 07:26:55;;;;;;;3.25;3.00;;;;;;;16.39;78.52;99539.44;4348489;33;33402;-73
2022/10/24 07:29:23;;;;;;;12.73;2.58;;;;;;;16.58;77.54;99539.72;4348297;33;33806;-72
2022/10/24 07:31:52;;;;;;;2.05;1.87;;;;;;;16.66;76.49;99521.94;4348376;33;35860;-73
2022/10/24 07:34:20;;;;;;;4.30;2.83;;;;;;;16.36;77.62;99523.78;4347566;33;34512;-72
2022/10/24 07:36:47;;;;;;;3.67;3.35;;;;;;;16.32;78.17;99532.66;4334842;33;33527;-73
2022/10/24 07:39:16;;;;;;;5.10;2.75;;;;;;;16.40;77.84;99529.81;4348284;33;34870;-73
2022/10/24 07:41:44;;;;;;;1.75;1.62;;;;;;;16.24;77.87;99539.94;4348082;33;35308;-73
2022/10/24 07:44:12;;;;;;;3.25;2.95;;;;;;;15.99;79.13;99538.03;4348030;33;35224;-73
2022/10/24 07:46:41;;;;;;;5.15;4.07;;;;;;;16.15;78.52;99542.81;4347987;33;33468;-73
2022/10/24 07:49:09;;;;;;;9.15;5.62;;;;;;;16.58;77.49;99547.59;4334768;33;33667;-73
2022/10/24 07:51:37;;;;;;;2.22;2.08;;;;;;;16.64;76.80;99547.41;4347975;33;35763;-73
2022/10/24 07:54:05;;;;;;;6.10;3.05;;;;;;;16.33;78.27;99550.16;4347847;33;34538;-72
2022/10/24 07:56:34;;;;;;;4.97;4.25;;;;;;;16.46;78.04;99550.63;4348150;33;34119;-73
2022/10/24 07:59:02;;;;;;;2.87;2.58;;;;;;;16.72;76.59;99541.91;4334698;33;34615;-73
2022/10/24 08:01:40;;;;;;;3.22;2.72;;;;;;;16.73;76.96;99548.91;4347889;33;35023;-73
2022/10/24 08:04:10;;;;;;;5.37;2.25;;;;;;;16.71;76.78;99560.34;4347759;33;34470;-73
2022/10/24 08:06:43;;;;;;;3.03;2.83;;;;;;;16.42;78.13;99556.88;4334681;33;33548;-73
2022/10/24 08:09:11;;;;;;;9.00;2.62;;;;;;;16.70;76.81;99558.66;4334981;33;34025;-73
2022/10/24 08:11:39;;;;;;;3.97;3.58;;;;;;;17.02;75.09;99554.97;4347588;33;36017;-73
2022/10/24 08:14:07;;;;;;;2.55;2.22;;;;;;;16.22;78.64;99542.59;4347666;33;34533;-73
2022/10/24 08:16:37;;;;;;;6.18;3.87;;;;;;;17.03;75.04;99543.56;4347319;33;33342;-73
2022/10/24 08:19:05;;;;;;;4.80;4.32;;;;;;;16.82;75.93;99532.81;4347672;33;34175;-73
2022/10/24 08:21:35;;;;;;;4.75;3.03;;;;;;;16.93;76.24;99529.00;4347837;33;35804;-72
2022/10/24 08:24:03;;;;;;;2.12;1.95;;;;;;;16.69;77.30;99528.84;4347600;33;33591;-73
2022/10/24 08:26:31;;;;;;;8.00;3.08;;;;;;;16.68;76.82;99535.87;4347470;33;33488;-73
2022/10/24 08:29:00;;;;;;;5.53;4.03;;;;;;;16.35;78.11;99526.47;4347415;33;34074;-73
2022/10/24 08:31:29;;;;;;;4.60;3.03;;;;;;;16.95;75.36;99529.78;4333812;33;34430;-73
2022/10/24 08:33:58;;;;;;;6.12;4.93;;;;;;;16.57;76.82;99524.88;4347266;33;34458;-73
2022/10/24 08:36:30;;;;;;;8.35;5.03;;;;;;;16.64;76.24;99522.88;4347409;33;33374;-73
2022/10/24 08:39:00;;;;;;;2.75;2.55;;;;;;;16.32;78.87;99516.88;4347236;33;34031;-73
2022/10/24 08:41:49;;;;;;;2.22;2.12;;;;;;;15.96;79.26;99517.12;4347233;33;35954;-73
2022/10/24 08:44:35;;;;;;;2.35;2.17;;;;;;;16.32;78.31;99511.63;4347274;33;33886;-73
2022/10/24 08:47:35;;;;;;;5.05;3.42;;;;;;;16.33;79.00;99517.78;4348627;33;33476;-73
2022/10/24 08:50:11;;;;;;;3.42;3.05;;;;;;;16.24;78.44;99514.50;4336435;33;34021;-74
2022/10/24 08:52:56;;;;;;;1.90;1.75;;;;;;;16.34;78.54;99520.34;4349399;33;35148;-72
2022/10/24 08:55:45;;;;;;;4.18;2.35;;;;;;;16.07;79.86;99512.38;4349324;33;34327;-73
2022/10/24 08:58:20;;;;;;;6.15;3.55;;;;;;;16.07;80.24;99517.66;4349318;33;33764;-73
2022/10/24 09:00:50;;;;;;;4.20;2.47;;;;;;;15.76;81.85;99511.59;4336222;33;34822;-73
2022/10/24 09:03:32;;;;;;;22.92;3.15;;;;;;;16.21;79.62;99514.59;4349333;33;35022;-72
2022/10/24 09:06:25;;;;;;;3.12;2.83;;;;;;;15.86;81.41;99508.63;4338161;33;33991;-73
2022/10/24 09:09:04;;;;;;;2.80;2.60;;;;;;;16.46;79.13;99508.56;4336276;33;33447;-73
2022/10/24 09:11:54;;;;;;;5.43;3.10;;;;;;;16.51;79.21;99509.28;4336069;33;33947;-72
2022/10/24 09:14:35;;;;;;;3.15;2.90;;;;;;;16.57;78.10;99508.22;4349180;33;35005;-72
2022/10/24 09:17:22;;;;;;;2.35;2.15;;;;;;;16.31;79.07;99512.56;4335912;33;35269;-73
2022/10/24 09:20:18;;;;;;;5.95;2.72;;;;;;;16.48;79.02;99507.63;4335988;33;33696;-74
2022/10/24 09:22:47;;;;;;;3.15;2.80;;;;;;;16.97;76.85;99512.19;4335830;33;34644;-73
2022/10/24 09:25:21;;;;;;;2.37;2.28;;;;;;;16.86;78.31;99517.81;4335924;33;34923;-74
2022/10/24 09:27:50;;;;;;;4.25;3.30;;;;;;;16.71;78.62;99520.91;4336002;33;35218;-73
2022/10/24 09:30:20;;;;;;;4.20;2.10;;;;;;;16.80;77.48;99526.75;4336069;33;33647;-73
2022/10/24 09:32:49;;;;;;;1.48;1.37;;;;;;;16.53;78.75;99517.12;4336068;33;33925;-73
2022/10/24 09:35:23;;;;;;;3.62;2.42;;;;;;;16.89;76.60;99522.09;4335865;33;35279;-73
2022/10/24 09:37:56;;;;;;;2.22;1.95;;;;;;;16.62;78.32;99529.97;4348951;33;34296;-72
2022/10/24 09:40:27;;;;;;;5.32;4.62;;;;;;;16.54;79.08;99543.37;4336386;33;33398;-73
2022/10/24 09:43:23;;;;;;;5.95;3.75;;;;;;;17.07;75.96;99547.78;4336097;33;34511;-72
2022/10/24 09:46:12;;;;;;;4.80;4.40;;;;;;;17.00;75.83;99549.75;4335821;33;34760;-72
2022/10/24 09:48:45;;;;;;;3.72;3.35;;;;;;;17.32;75.25;99554.84;4335695;33;33783;-72
2022/10/24 09:51:18;;;;;;;3.72;3.00;;;;;;;17.17;75.35;99549.22;4335538;33;32992;-72
2022/10/24 09:54:06;;;;;;;3.35;2.08;;;;;;;17.52;74.04;99544.44;4335877;33;34702;-72
2022/10/24 09:56:40;;;;;;;3.45;2.97;;;;;;;17.43;74.08;99540.38;4335570;33;35897;-73
2022/10/24 09:59:32;;;;;;;2.15;1.95;;;;;;;16.73;78.04;99542.75;4335396;33;34523;-72
2022/10/24 10:02:09;;;;;;;1.65;1.55;;;;;;;16.63;78.98;99539.56;4334899;33;33899;-72
2022/10/24 10:04:41;;;;;;;4.35;3.35;;;;;;;16.63;79.06;99536.94;4348792;33;34056;-74
2022/10/24 10:07:12;;;;;;;2.95;2.70;;;;;;;16.84;78.42;99533.63;4335750;33;36015;-73
2022/10/24 10:09:54;;;;;;;3.87;3.53;;;;;;;17.15;76.42;99537.00;4335669;33;35211;-71
2022/10/24 10:12:31;;;;;;;2.30;2.08;;;;;;;16.69;78.50;99531.47;4335704;33;33494;-73
2022/10/24 10:15:18;;;;;;;3.60;3.28;;;;;;;16.87;77.76;99525.66;4335535;33;34779;-73
2022/10/24 10:17:51;;;;;;;4.00;2.90;;;;;;;16.81;77.99;99528.44;4348857;33;35134;-74
2022/10/24 10:20:52;;;;;;;3.95;3.20;;;;;;;17.48;75.45;99529.69;4348853;33;34416;-72
2022/10/24 10:23:32;;;;;;;4.28;2.45;;;;;;;17.36;75.47;99524.84;4343118;33;34228;-72
2022/10/24 10:26:05;;;;;;;2.17;1.95;;;;;;;17.70;74.64;99519.25;4335721;33;34097;-72
2022/10/24 10:28:39;;;;;;;4.57;2.72;;;;;;;17.43;75.69;99523.72;4335809;33;35091;-73
2022/10/24 10:31:08;;;;;;;2.05;1.95;;;;;;;17.03;77.80;99514.63;4335582;33;35092;-74
2022/10/24 10:33:54;;;;;;;3.67;2.90;;;;;;;17.46;76.44;99517.50;4335574;33;33542;-73
2022/10/24 10:36:30;;;;;;;4.47;3.05;;;;;;;17.43;76.46;99518.47;4348728;33;33700;-73
2022/10/24 10:39:19;;;;;;;5.80;1.92;;;;;;;17.69;75.83;99520.16;4335386;33;35947;-73
2022/10/24 10:42:02;;;;;;;2.85;2.62;;;;;;;17.81;74.45;99518.84;4348670;33;34460;-73
2022/10/24 10:44:53;;;;;;;4.28;3.12;;;;;;;17.78;75.12;99503.13;4348651;33;33740;-72
2022/10/24 10:47:35;;;;;;;2.25;2.12;;;;;;;17.97;74.76;99500.69;4348669;33;34206;-73
2022/10/24 10:50:28;;;;;;;2.30;2.10;;;;;;;17.98;74.12;99495.38;4335396;33;35120;-73
2022/10/24 10:53:21;;;;;;;3.25;1.85;;;;;;;18.23;74.23;99491.78;4335349;33;34451;-73
2022/10/24 10:56:33;;;;;;;3.08;2.30;;;;;;;17.49;77.09;99496.31;4348682;33;33660;-72
2022/10/24 10:59:16;;;;;;;1.83;1.60;;;;;;;17.60;77.25;99495.00;4313002;33;33946;-73
2022/10/24 11:01:57;;;;;;;7.95;2.55;;;;;;;17.47;77.46;99488.50;4348512;33;35782;-73
2022/10/24 11:04:49;;;;;;;1.23;1.17;;;;;;;17.99;74.63;99486.53;4335262;33;34604;-73
2022/10/24 11:07:39;;;;;;;7.05;2.53;;;;;;;17.88;75.13;99488.75;4335156;33;34196;-73
2022/10/24 11:10:11;;;;;;;1.77;1.30;;;;;;;17.80;75.35;99496.88;4347549;33;32720;-74
2022/10/24 11:12:41;;;;;;;1.55;1.45;;;;;;;17.91;74.85;99486.00;4348452;33;36029;-72
2022/10/24 11:15:19;;;;;;;3.67;2.83;;;;;;;17.91;75.35;99485.13;4348284;33;34538;-74
2022/10/24 11:18:00;;;;;;;2.25;1.98;;;;;;;18.40;72.87;99482.31;4348341;33;32930;-73
2022/10/24 11:20:50;;;;;;;3.50;2.15;;;;;;;17.82;74.36;99494.19;4335093;33;34892;-73
2022/10/24 11:23:27;;;;;;;5.18;2.40;;;;;;;18.25;72.74;99497.84;4348370;33;35137;-73
2022/10/24 11:26:02;;;;;;;3.70;3.22;;;;;;;18.06;73.54;99508.25;4348353;33;35170;-74
2022/10/24 11:28:53;;;;;;;2.55;2.22;;;;;;;18.08;74.14;99497.66;4335176;33;33322;-73
2022/10/24 11:31:47;;;;;;;2.85;1.98;;;;;;;18.49;72.03;99492.50;4334839;33;32302;-73
2022/10/24 11:34:22;;;;;;;3.50;2.65;;;;;;;18.26;72.64;99494.28;4331043;33;35959;-74
2022/10/24 11:36:59;;;;;;;3.37;2.05;;;;;;;17.88;73.86;99495.78;4348148;33;35338;-73
2022/10/24 11:39:42;;;;;;;2.25;2.05;;;;;;;17.88;74.83;99487.88;4335021;33;33495;-73
2022/10/24 11:42:16;;;;;;;2.25;2.05;;;;;;;18.27;72.99;99490.72;4334974;33;34719;-73
2022/10/24 11:45:03;;;;;;;3.28;1.87;;;;;;;18.49;70.85;99489.84;4348322;33;35144;-73
2022/10/24 11:47:37;;;;;;;;;;;;;;;18.36;71.44;99486.88;4348466;33;34432;-73
2022/10/24 11:50:11;;;;;;;2.65;1.90;;;;;;;18.45;70.70;99488.28;4348226;33;33292;-73
2022/10/24 11:52:49;;;;;;;4.07;3.67;;;;;;;18.62;69.21;99496.34;4348028;33;33904;-73
2022/10/24 11:55:23;;;;;;;4.15;2.72;;;;;;;18.14;71.41;99478.94;4334736;33;35051;-72
2022/10/24 11:57:54;;;;;;;2.25;2.10;;;;;;;18.23;71.90;99472.44;4334719;33;34423;-73
2022/10/24 12:00:25;;;;;;;1.90;1.70;;;;;;;18.13;72.14;99477.25;4347784;33;32505;-73
2022/10/24 12:03:31;;;;;;;2.42;2.22;;;;;;;18.26;71.79;99489.00;4334554;33;34624;-73